createdAt,value
2018-06-05T00:00:58.506Z,97301.45
2018-06-05T00:03:27.463Z,97294.75
2018-06-05T00:05:56.380Z,97296.70
2018-06-05T00:08:25.666Z,97299.41
2018-06-05T00:10:54.858Z,97301.20
2018-06-05T00:13:23.932Z,97307.98
2018-06-05T00:15:52.836Z,97314.39
2018-06-05T00:18:22.012Z,97307.72
2018-06-05T00:20:50.783Z,97305.95
2018-06-05T00:23:19.860Z,97306.74
2018-06-05T00:25:50.578Z,97304.13
2018-06-05T00:28:19.625Z,97301.72
2018-06-05T00:30:48.773Z,97305.23
2018-06-05T00:33:21.020Z,97303.67
2018-06-05T00:35:49.882Z,97304.20
2018-06-05T00:38:18.825Z,97298.56
2018-06-05T00:40:47.814Z,97299.77
2018-06-05T00:43:16.646Z,97300.95
2018-06-05T00:45:53.156Z,97305.80
2018-06-05T00:48:22.138Z,97301.48
2018-06-05T00:50:50.925Z,97300.10
2018-06-05T00:53:20.126Z,97299.67
2018-06-05T00:55:49.205Z,97296.47
2018-06-05T00:58:18.136Z,97294.30
2018-06-05T01:00:47.152Z,97293.92
2018-06-05T01:03:16.289Z,97292.92
2018-06-05T01:05:45.302Z,97292.16
2018-06-05T01:08:14.764Z,97286.92
2018-06-05T01:10:43.808Z,97291.97
2018-06-05T01:13:13.081Z,97294.23
2018-06-05T01:15:41.973Z,97295.61
2018-06-05T01:18:10.945Z,97293.26
2018-06-05T01:20:40.114Z,97295.80
2018-06-05T01:23:09.219Z,97294.64
2018-06-05T01:25:38.391Z,97293.26
2018-06-05T01:28:07.796Z,97295.80
2018-06-05T01:30:36.694Z,97298.60
2018-06-05T01:33:05.577Z,97304.95
2018-06-05T01:35:34.463Z,97308.72
2018-06-05T01:38:03.833Z,97314.41
2018-06-05T01:40:32.859Z,97313.50
2018-06-05T01:43:01.796Z,97313.60
2018-06-05T01:45:30.712Z,97317.51
2018-06-05T01:47:59.703Z,97320.96
2018-06-05T01:50:28.654Z,97325.66
2018-06-05T01:52:57.897Z,97322.66
2018-06-05T01:55:27.083Z,97324.61
2018-06-05T01:57:56.053Z,97329.51
2018-06-05T02:00:24.825Z,97331.38
2018-06-05T02:02:53.714Z,97330.36
2018-06-05T02:05:22.566Z,97336.09
2018-06-05T02:07:51.593Z,97332.11
2018-06-05T02:10:20.732Z,97332.52
2018-06-05T02:12:49.583Z,97324.02
2018-06-05T02:15:18.611Z,97330.75
2018-06-05T02:17:47.614Z,97330.75
2018-06-05T02:20:16.598Z,97328.86
2018-06-05T02:22:45.484Z,97329.53
2018-06-05T02:25:14.484Z,97334.85
2018-06-05T02:27:43.350Z,97332.77
2018-06-05T02:30:12.139Z,97332.48
2018-06-05T02:32:41.044Z,97332.33
2018-06-05T02:35:10.048Z,97339.70
2018-06-05T02:37:39.548Z,97336.59
2018-06-05T02:40:09.392Z,97336.18
2018-06-05T02:42:38.658Z,97340.08
2018-06-05T02:45:07.694Z,97339.13
2018-06-05T02:47:36.584Z,97335.48
2018-06-05T02:50:05.773Z,97329.62
2018-06-05T02:52:34.976Z,97337.08
2018-06-05T02:55:03.993Z,97336.02
2018-06-05T02:57:32.799Z,97343.72
2018-06-05T03:00:02.331Z,97340.77
2018-06-05T03:02:31.575Z,97343.11
2018-06-05T03:05:00.491Z,97344.59
2018-06-05T03:07:29.740Z,97347.13
2018-06-05T03:09:58.857Z,97346.28
2018-06-05T03:12:27.893Z,97345.30
2018-06-05T03:14:57.013Z,97349.58
2018-06-05T03:17:26.062Z,97353.89
2018-06-05T03:19:55.149Z,97353.12
2018-06-05T03:22:24.108Z,97359.56
2018-06-05T03:24:53.031Z,97354.67
2018-06-05T03:27:21.898Z,97352.72
2018-06-05T03:29:50.989Z,97351.61
2018-06-05T03:32:20.139Z,97355.55
2018-06-05T03:34:49.405Z,97356.83
2018-06-05T03:37:18.467Z,97361.57
2018-06-05T03:39:47.711Z,97364.66
2018-06-05T03:42:16.610Z,97366.95
2018-06-05T03:44:46.086Z,97369.81
2018-06-05T03:47:15.052Z,97364.52
2018-06-05T03:49:43.910Z,97365.50
2018-06-05T03:52:13.040Z,97368.06
2018-06-05T03:54:41.955Z,97369.23
2018-06-05T03:57:11.005Z,97378.72
2018-06-05T03:59:39.971Z,97375.09
2018-06-05T04:02:09.260Z,97376.56
2018-06-05T04:04:38.670Z,97386.87
2018-06-05T04:07:07.934Z,97376.27
2018-06-05T04:09:36.960Z,97381.16
2018-06-05T04:12:06.206Z,97382.59
2018-06-05T04:14:35.374Z,97375.92
2018-06-05T04:17:04.237Z,97379.66
2018-06-05T04:19:33.188Z,97382.25
2018-06-05T04:22:02.255Z,97381.43
2018-06-05T04:24:31.494Z,97390.23
2018-06-05T04:27:00.353Z,97385.05
2018-06-05T04:29:29.327Z,97383.67
2018-06-05T04:31:58.360Z,97388.36
2018-06-05T04:34:27.467Z,97386.20
2018-06-05T04:36:56.890Z,97391.52
2018-06-05T04:39:25.861Z,97387.13
2018-06-05T04:41:54.631Z,97397.88
2018-06-05T04:44:23.952Z,97400.00
2018-06-05T04:46:53.484Z,97398.93
2018-06-05T04:49:22.528Z,97399.34
2018-06-05T04:51:51.512Z,97403.45
2018-06-05T04:54:20.637Z,97397.01
2018-06-05T04:56:49.640Z,97401.97
2018-06-05T04:59:18.740Z,97401.35
2018-06-05T05:01:47.993Z,97404.91
2018-06-05T05:04:17.429Z,97405.66
2018-06-05T05:06:46.314Z,97409.22
2018-06-05T05:09:15.551Z,97408.48
2018-06-05T05:11:47.498Z,97412.59
2018-06-05T05:14:16.833Z,97416.06
2018-06-05T05:16:46.034Z,97416.15
2018-06-05T05:19:15.011Z,97417.72
2018-06-05T05:21:43.926Z,97416.47
2018-06-05T05:24:12.994Z,97419.62
2018-06-05T05:26:42.101Z,97422.91
2018-06-05T05:29:11.128Z,97423.69
2018-06-05T05:31:40.025Z,97421.41
2018-06-05T05:34:08.884Z,97421.67
2018-06-05T05:36:37.791Z,97421.02
2018-06-05T05:39:08.245Z,97421.06
2018-06-05T05:41:37.423Z,97420.94
2018-06-05T05:44:06.393Z,97417.70
2018-06-05T05:46:35.317Z,97426.69
2018-06-05T05:49:04.285Z,97418.94
2018-06-05T05:51:33.404Z,97414.65
2018-06-05T05:54:02.832Z,97419.80
2018-06-05T05:56:31.946Z,97416.92
2018-06-05T05:59:01.024Z,97416.28
2018-06-05T06:01:30.012Z,97416.97
2018-06-05T06:03:59.261Z,97414.69
2018-06-05T06:06:28.387Z,97419.90
2018-06-05T06:08:57.378Z,97422.50
2018-06-05T06:11:26.389Z,97424.11
2018-06-05T06:13:55.351Z,97421.57
2018-06-05T06:16:24.877Z,97425.88
2018-06-05T06:18:54.307Z,97430.11
2018-06-05T06:21:24.274Z,97430.84
2018-06-05T06:23:53.107Z,97441.08
2018-06-05T06:26:22.004Z,97438.33
2018-06-05T06:28:51.261Z,97435.73
2018-06-05T06:31:20.657Z,97431.03
2018-06-05T06:33:49.560Z,97431.69
2018-06-05T06:36:18.640Z,97428.95
2018-06-05T06:38:47.582Z,97436.44
2018-06-05T06:41:17.246Z,97434.13
2018-06-05T06:43:46.286Z,97440.17
2018-06-05T06:46:15.211Z,97430.83
2018-06-05T06:48:44.431Z,97440.64
2018-06-05T06:51:13.464Z,97431.51
2018-06-05T06:53:42.491Z,97427.80
2018-06-05T06:56:11.704Z,97430.45
2018-06-05T06:58:40.592Z,97432.41
2018-06-05T07:01:09.567Z,97433.02
2018-06-05T07:03:38.614Z,97428.71
2018-06-05T07:06:07.498Z,97432.61
2018-06-05T07:08:36.478Z,97432.81
2018-06-05T07:11:05.534Z,97431.64
2018-06-05T07:13:34.409Z,97433.84
2018-06-05T07:16:03.603Z,97430.71
2018-06-05T07:18:32.783Z,97427.96
2018-06-05T07:21:01.619Z,97431.88
2018-06-05T07:23:30.750Z,97433.08
2018-06-05T07:25:59.679Z,97429.13
2018-06-05T07:28:28.672Z,97430.52
2018-06-05T07:30:57.860Z,97430.92
2018-06-05T07:33:26.777Z,97433.30
2018-06-05T07:35:55.898Z,97436.62
2018-06-05T07:38:25.169Z,97433.05
2018-06-05T07:40:54.210Z,97426.36
2018-06-05T07:43:23.471Z,97433.02
2018-06-05T07:45:52.401Z,97428.84
2018-06-05T07:48:21.242Z,97428.15
2018-06-05T07:50:50.239Z,97427.31
2018-06-05T07:53:19.752Z,97424.72
2018-06-05T07:55:49.259Z,97416.83
2018-06-05T07:58:18.449Z,97419.75
2018-06-05T08:00:47.698Z,97418.59
2018-06-05T08:03:16.703Z,97412.86
2018-06-05T08:05:45.565Z,97417.72
2018-06-05T08:08:14.644Z,97419.72
2018-06-05T08:10:43.670Z,97416.12
2018-06-05T08:13:12.608Z,97414.89
2018-06-05T08:15:41.433Z,97416.49
2018-06-05T08:18:10.201Z,97415.56
2018-06-05T08:20:39.393Z,97418.86
2018-06-05T08:23:08.539Z,97411.55
2018-06-05T08:25:37.329Z,97416.46
2018-06-05T08:28:06.202Z,97415.35
2018-06-05T08:30:35.339Z,97421.62
2018-06-05T08:33:04.440Z,97414.21
2018-06-05T08:35:33.403Z,97416.97
2018-06-05T08:38:02.432Z,97417.71
2018-06-05T08:40:31.463Z,97417.93
2018-06-05T08:43:04.026Z,97411.94
2018-06-05T08:45:33.892Z,97407.09
2018-06-05T08:48:08.729Z,97415.09
2018-06-05T08:50:37.713Z,97406.72
2018-06-05T08:53:06.879Z,97405.12
2018-06-05T08:55:35.662Z,97401.31
2018-06-05T08:58:05.462Z,97406.66
2018-06-05T09:00:34.497Z,97404.27
2018-06-05T09:03:03.946Z,97397.60
2018-06-05T09:05:33.171Z,97402.37
2018-06-05T09:08:02.277Z,97401.56
2018-06-05T09:10:31.279Z,97399.03
2018-06-05T09:13:00.486Z,97397.71
2018-06-05T09:15:29.929Z,97404.80
2018-06-05T09:17:58.845Z,97401.09
2018-06-05T09:20:27.971Z,97395.80
2018-06-05T09:22:57.134Z,97401.36
2018-06-05T09:25:26.061Z,97395.09
2018-06-05T09:27:55.154Z,97395.09
2018-06-05T09:30:24.639Z,97399.34
2018-06-05T09:32:53.568Z,97397.78
2018-06-05T09:35:22.600Z,97390.55
2018-06-05T09:37:55.100Z,97395.27
2018-06-05T09:40:24.371Z,97393.59
2018-06-05T09:42:53.765Z,97399.88
2018-06-05T09:45:22.539Z,97392.52
2018-06-05T09:47:51.805Z,97397.66
2018-06-05T09:50:20.706Z,97398.80
2018-06-05T09:52:49.749Z,97393.44
2018-06-05T09:55:18.801Z,97388.11
2018-06-05T09:57:48.234Z,97394.93
2018-06-05T10:00:17.242Z,97381.88
2018-06-05T10:02:46.570Z,97381.39
2018-06-05T10:05:15.603Z,97394.09
2018-06-05T10:07:44.699Z,97390.27
2018-06-05T10:10:13.708Z,97387.77
2018-06-05T10:12:42.765Z,97388.73
2018-06-05T10:15:11.822Z,97375.52
2018-06-05T10:17:40.959Z,97381.45
2018-06-05T10:20:09.827Z,97381.61
2018-06-05T10:22:38.971Z,97382.55
2018-06-05T10:25:08.154Z,97378.41
2018-06-05T10:27:37.068Z,97371.32
2018-06-05T10:30:05.964Z,97377.09
2018-06-05T10:32:34.787Z,97373.77
2018-06-05T10:35:03.542Z,97363.80
2018-06-05T10:37:32.627Z,97363.30
2018-06-05T10:40:01.723Z,97372.58
2018-06-05T10:42:30.662Z,97367.90
2018-06-05T10:44:59.487Z,97365.66
2018-06-05T10:47:28.322Z,97365.97
2018-06-05T10:49:57.089Z,97362.91
2018-06-05T10:52:26.167Z,97360.92
2018-06-05T10:54:55.151Z,97373.13
2018-06-05T10:57:24.300Z,97360.45
2018-06-05T10:59:53.204Z,97366.83
2018-06-05T11:02:22.136Z,97356.12
2018-06-05T11:04:51.270Z,97359.42
2018-06-05T11:07:20.277Z,97358.39
2018-06-05T11:09:49.210Z,97365.01
2018-06-05T11:12:18.512Z,97352.17
2018-06-05T11:14:47.317Z,97361.80
2018-06-05T11:17:17.405Z,97361.50
2018-06-05T11:19:46.467Z,97366.00
2018-06-05T11:22:15.851Z,97353.88
2018-06-05T11:24:44.888Z,97358.66
2018-06-05T11:27:14.350Z,97339.07
2018-06-05T11:29:43.160Z,97356.39
2018-06-05T11:32:12.634Z,97350.62
2018-06-05T11:34:41.471Z,97353.70
2018-06-05T11:37:10.315Z,97346.48
2018-06-05T11:39:39.251Z,97348.90
2018-06-05T11:42:08.071Z,97343.17
2018-06-05T11:44:37.391Z,97341.16
2018-06-05T11:47:06.629Z,97348.50
2018-06-05T11:49:35.489Z,97353.19
2018-06-05T11:52:04.544Z,97330.92
2018-06-05T11:54:33.631Z,97335.58
2018-06-05T11:57:02.516Z,97339.76
2018-06-05T11:59:31.755Z,97326.55
2018-06-05T12:02:00.866Z,97336.59
2018-06-05T12:04:29.814Z,97336.96
2018-06-05T12:06:58.857Z,97337.13
2018-06-05T12:09:28.231Z,97325.45
2018-06-05T12:11:57.379Z,97320.73
2018-06-05T12:14:26.371Z,97315.69
2018-06-05T12:16:55.464Z,97323.56
2018-06-05T12:19:24.410Z,97318.63
2018-06-05T12:21:53.555Z,97324.41
2018-06-05T12:24:22.511Z,97310.53
2018-06-05T12:26:51.587Z,97306.11
2018-06-05T12:29:20.392Z,97302.81
2018-06-05T12:31:49.239Z,97303.52
2018-06-05T12:34:18.183Z,97289.86
2018-06-05T12:36:47.282Z,97289.88
2018-06-05T12:39:16.249Z,97292.50
2018-06-05T12:41:45.466Z,97286.83
2018-06-05T12:44:14.368Z,97288.91
2018-06-05T12:46:44.278Z,97284.09
2018-06-05T12:49:13.127Z,97286.56
2018-06-05T12:51:42.438Z,97281.27
2018-06-05T12:54:11.706Z,97279.40
2018-06-05T12:56:41.117Z,97279.91
2018-06-05T12:59:10.201Z,97267.81
2018-06-05T13:01:39.322Z,97268.19
2018-06-05T13:04:08.286Z,97272.23
2018-06-05T13:06:37.242Z,97272.67
2018-06-05T13:09:08.097Z,97266.89
2018-06-05T13:11:37.062Z,97261.35
2018-06-05T13:14:06.314Z,97265.07
2018-06-05T13:16:35.222Z,97264.03
2018-06-05T13:19:04.287Z,97261.33
2018-06-05T13:21:33.296Z,97259.81
2018-06-05T13:24:02.966Z,97257.73
2018-06-05T13:26:31.985Z,97263.21
2018-06-05T13:29:00.866Z,97260.30
2018-06-05T13:31:29.841Z,97254.20
2018-06-05T13:33:58.773Z,97257.73
2018-06-05T13:36:29.643Z,97254.80
2018-06-05T13:39:00.040Z,97269.42
2018-06-05T13:41:29.967Z,97270.40
2018-06-05T13:44:00.160Z,97262.13
2018-06-05T13:46:29.509Z,97257.89
2018-06-05T13:49:00.215Z,97266.73
2018-06-05T13:51:30.415Z,97256.06
2018-06-05T13:54:00.179Z,97246.38
2018-06-05T13:56:29.362Z,97239.57
2018-06-05T13:58:58.357Z,97245.49
2018-06-05T14:01:27.695Z,97247.23
2018-06-05T14:03:56.703Z,97255.98
2018-06-05T14:06:25.681Z,97247.70
2018-06-05T14:08:54.568Z,97245.58
2018-06-05T14:11:23.453Z,97239.34
2018-06-05T14:13:53.434Z,97242.84
2018-06-05T14:16:22.631Z,97240.23
2018-06-05T14:18:52.078Z,97233.17
2018-06-05T14:21:21.098Z,97249.34
2018-06-05T14:23:50.117Z,97233.59
2018-06-05T14:26:19.442Z,97231.20
2018-06-05T14:28:48.763Z,97238.25
2018-06-05T14:31:17.839Z,97228.42
2018-06-05T14:33:46.688Z,97227.50
2018-06-05T14:36:15.625Z,97228.25
2018-06-05T14:38:44.488Z,97224.91
2018-06-05T14:41:13.471Z,97221.67
2018-06-05T14:43:42.684Z,97222.62
2018-06-05T14:46:12.218Z,97225.53
2018-06-05T14:48:41.691Z,97214.02
2018-06-05T14:51:10.711Z,97219.05
2018-06-05T14:53:40.019Z,97215.33
2018-06-05T14:56:08.914Z,97216.39
2018-06-05T14:58:37.764Z,97209.23
2018-06-05T15:01:07.270Z,97210.98
2018-06-05T15:03:36.318Z,97207.85
2018-06-05T15:06:05.379Z,97197.22
2018-06-05T15:08:34.487Z,97199.71
2018-06-05T15:11:03.433Z,97209.51
2018-06-05T15:13:32.547Z,97204.56
2018-06-05T15:16:01.612Z,97207.45
2018-06-05T15:18:30.494Z,97201.01
2018-06-05T15:20:59.833Z,97205.92
2018-06-05T15:23:28.749Z,97203.56
2018-06-05T15:25:57.847Z,97201.64
2018-06-05T15:28:27.232Z,97197.94
2018-06-05T15:30:56.453Z,97203.47
2018-06-05T15:33:25.514Z,97198.28
2018-06-05T15:35:54.571Z,97202.97
2018-06-05T15:38:23.621Z,97204.50
2018-06-05T15:40:53.891Z,97200.15
2018-06-05T15:43:23.038Z,97199.53
2018-06-05T15:45:51.876Z,97200.73
2018-06-05T15:48:21.128Z,97202.45
2018-06-05T15:50:50.302Z,97194.12
2018-06-05T15:53:19.239Z,97191.09
2018-06-05T15:55:48.108Z,97192.89
2018-06-05T15:58:17.915Z,97192.73
2018-06-05T16:00:47.221Z,97201.26
2018-06-05T16:03:16.924Z,97196.39
2018-06-05T16:05:52.265Z,97205.06
2018-06-05T16:08:22.074Z,97204.50
2018-06-05T16:10:51.643Z,97200.78
2018-06-05T16:13:22.570Z,97202.48
2018-06-05T16:15:52.856Z,97199.45
2018-06-05T16:18:22.040Z,97203.09
2018-06-05T16:20:51.350Z,97205.59
2018-06-05T16:23:23.185Z,97202.86
2018-06-05T16:25:55.082Z,97202.28
2018-06-05T16:28:37.039Z,97206.84
2018-06-05T16:37:25.789Z,97203.89
2018-06-05T16:39:54.920Z,97209.50
2018-06-05T16:42:23.906Z,97211.51
2018-06-05T16:44:52.896Z,97210.05
2018-06-05T16:47:21.821Z,97205.52
2018-06-05T16:49:51.216Z,97204.62
2018-06-05T16:52:20.196Z,97205.48
2018-06-05T16:54:49.131Z,97205.68
2018-06-05T16:57:18.260Z,97216.39
2018-06-05T16:59:47.234Z,97222.09
2018-06-05T17:02:15.909Z,97227.30
2018-06-05T17:04:44.651Z,97226.77
2018-06-05T17:07:14.149Z,97231.86
2018-06-05T17:09:43.362Z,97232.84
2018-06-05T17:12:12.519Z,97227.14
2018-06-05T17:14:41.283Z,97230.90
2018-06-05T17:17:10.211Z,97228.23
2018-06-05T17:19:39.239Z,97227.67
2018-06-05T17:22:08.195Z,97235.14
2018-06-05T17:24:37.204Z,97226.23
2018-06-05T17:27:06.300Z,97233.02
2018-06-05T17:29:35.200Z,97241.94
2018-06-05T17:32:03.916Z,97235.78
2018-06-05T17:34:32.762Z,97241.16
2018-06-05T17:37:01.526Z,97243.31
2018-06-05T17:39:30.869Z,97253.86
2018-06-05T17:42:00.042Z,97246.00
2018-06-05T17:44:29.442Z,97249.70
2018-06-05T17:46:58.285Z,97250.77
2018-06-05T17:49:27.661Z,97261.88
2018-06-05T17:51:56.847Z,97257.48
2018-06-05T17:54:25.638Z,97256.14
2018-06-05T17:56:54.369Z,97251.41
2018-06-05T17:59:23.523Z,97251.91
2018-06-05T18:01:52.674Z,97258.86
2018-06-05T18:04:21.679Z,97254.86
2018-06-05T18:06:50.595Z,97257.47
2018-06-05T18:09:19.523Z,97254.45
2018-06-05T18:11:48.637Z,97257.35
2018-06-05T18:14:17.758Z,97263.45
2018-06-05T18:16:46.722Z,97262.09
2018-06-05T18:19:15.794Z,97266.52
2018-06-05T18:21:44.712Z,97270.39
2018-06-05T18:24:13.785Z,97271.59
2018-06-05T18:26:42.721Z,97278.23
2018-06-05T18:29:11.869Z,97290.03
2018-06-05T18:31:40.820Z,97277.42
2018-06-05T18:34:09.821Z,97280.87
2018-06-05T18:36:38.621Z,97277.78
2018-06-05T18:39:09.058Z,97282.58
2018-06-05T18:41:37.949Z,97279.84
2018-06-05T18:44:06.958Z,97276.76
2018-06-05T18:46:35.868Z,97280.07
2018-06-05T18:49:04.810Z,97285.81
2018-06-05T18:51:34.735Z,97281.45
2018-06-05T18:54:03.683Z,97287.80
2018-06-05T18:56:32.586Z,97287.87
2018-06-05T18:59:01.784Z,97295.55
2018-06-05T19:01:30.969Z,97301.96
2018-06-05T19:04:00.019Z,97309.88
2018-06-05T19:06:29.053Z,97313.16
2018-06-05T19:08:58.230Z,97309.59
2018-06-05T19:11:27.150Z,97317.70
2018-06-05T19:13:56.260Z,97327.11
2018-06-05T19:16:25.438Z,97327.34
2018-06-05T19:18:54.374Z,97335.73
2018-06-05T19:21:23.403Z,97335.76
2018-06-05T19:23:52.569Z,97338.56
2018-06-05T19:26:21.500Z,97343.29
2018-06-05T19:28:50.383Z,97345.14
2018-06-05T19:31:19.907Z,97352.85
2018-06-05T19:33:48.681Z,97355.87
2018-06-05T19:36:17.520Z,97357.27
2018-06-05T19:38:46.590Z,97364.16
2018-06-05T19:41:15.505Z,97370.11
2018-06-05T19:43:44.451Z,97375.28
2018-06-05T19:46:13.549Z,97386.90
2018-06-05T19:48:42.496Z,97387.87
2018-06-05T19:51:11.457Z,97390.81
2018-06-05T19:53:40.574Z,97394.81
2018-06-05T19:56:10.030Z,97400.75
2018-06-05T19:58:39.120Z,97405.27
2018-06-05T20:01:08.307Z,97409.20
2018-06-05T20:03:37.395Z,97401.77
2018-06-05T20:06:06.441Z,97408.48
2018-06-05T20:08:35.537Z,97413.98
2018-06-05T20:11:04.426Z,97408.86
2018-06-05T20:13:33.400Z,97411.44
2018-06-05T20:16:02.328Z,97415.37
2018-06-05T20:18:31.299Z,97414.78
2018-06-05T20:21:00.203Z,97417.16
2018-06-05T20:23:29.192Z,97417.77
2018-06-05T20:25:58.083Z,97427.59
2018-06-05T20:28:26.900Z,97422.84
2018-06-05T20:30:55.861Z,97428.55
2018-06-05T20:33:25.250Z,97432.69
2018-06-05T20:35:54.511Z,97433.88
2018-06-05T20:38:23.309Z,97436.62
2018-06-05T20:40:52.925Z,97442.13
2018-06-05T20:43:22.032Z,97442.10
2018-06-05T20:45:51.295Z,97446.26
2018-06-05T20:48:20.367Z,97446.05
2018-06-05T20:50:49.330Z,97450.75
2018-06-05T20:53:18.402Z,97453.07
2018-06-05T20:55:47.470Z,97456.20
2018-06-05T20:58:16.295Z,97455.41
2018-06-05T21:00:45.297Z,97453.23
2018-06-05T21:03:14.395Z,97458.92
2018-06-05T21:05:43.516Z,97462.06
2018-06-05T21:08:12.380Z,97463.44
2018-06-05T21:10:41.181Z,97463.97
2018-06-05T21:13:10.049Z,97466.11
2018-06-05T21:15:39.109Z,97477.63
2018-06-05T21:18:07.903Z,97476.28
2018-06-05T21:20:36.843Z,97476.84
2018-06-05T21:23:05.874Z,97476.02
2018-06-05T21:25:34.877Z,97483.48
2018-06-05T21:28:03.798Z,97483.05
2018-06-05T21:30:32.777Z,97488.91
2018-06-05T21:33:01.831Z,97488.94
2018-06-05T21:35:30.751Z,97488.16
2018-06-05T21:37:59.720Z,97492.43
2018-06-05T21:40:28.647Z,97492.43
2018-06-05T21:42:57.712Z,97498.47
2018-06-05T21:45:26.627Z,97497.45
2018-06-05T21:47:55.525Z,97503.31
2018-06-05T21:50:24.370Z,97495.98
2018-06-05T21:52:53.139Z,97492.48
2018-06-05T21:55:21.906Z,97498.09
2018-06-05T21:57:50.688Z,97496.88
2018-06-05T22:00:22.979Z,97498.82
2018-06-05T22:02:51.761Z,97503.34
2018-06-05T22:05:20.632Z,97494.33
2018-06-05T22:07:49.772Z,97499.62
2018-06-05T22:10:18.473Z,97494.27
2018-06-05T22:12:47.271Z,97500.48
2018-06-05T22:15:16.019Z,97499.45
2018-06-05T22:17:44.940Z,97500.63
2018-06-05T22:20:13.958Z,97499.42
2018-06-05T22:22:43.005Z,97502.78
2018-06-05T22:25:12.026Z,97497.82
2018-06-05T22:27:40.815Z,97506.48
2018-06-05T22:30:09.630Z,97501.94
2018-06-05T22:32:38.437Z,97502.36
2018-06-05T22:35:07.668Z,97503.55
2018-06-05T22:37:36.700Z,97500.95
2018-06-05T22:40:05.661Z,97494.67
2018-06-05T22:42:34.590Z,97490.80
2018-06-05T22:45:03.385Z,97490.66
2018-06-05T22:47:32.634Z,97486.45
2018-06-05T22:50:01.442Z,97493.44
2018-06-05T22:52:30.350Z,97491.68
2018-06-05T22:54:59.238Z,97493.20
2018-06-05T22:57:27.986Z,97496.58
2018-06-05T22:59:56.907Z,97491.45
2018-06-05T23:02:25.970Z,97492.55
2018-06-05T23:04:54.685Z,97497.31
2018-06-05T23:07:23.455Z,97495.89
2018-06-05T23:09:52.369Z,97482.57
2018-06-05T23:12:21.113Z,97492.09
2018-06-05T23:14:49.968Z,97484.25
2018-06-05T23:17:18.917Z,97490.87
2018-06-05T23:19:47.921Z,97493.97
2018-06-05T23:22:16.750Z,97488.20
2018-06-05T23:24:45.657Z,97481.67
2018-06-05T23:27:14.576Z,97479.20
2018-06-05T23:29:43.503Z,97479.75
2018-06-05T23:32:12.261Z,97472.78
2018-06-05T23:34:41.181Z,97479.92
2018-06-05T23:37:10.002Z,97480.48
2018-06-05T23:39:38.855Z,97471.16
2018-06-05T23:42:07.826Z,97472.52
2018-06-05T23:44:36.744Z,97479.23
2018-06-05T23:47:05.644Z,97474.77
2018-06-05T23:49:34.525Z,97478.23
2018-06-05T23:52:03.338Z,97473.11
2018-06-05T23:54:32.157Z,97471.75
2018-06-05T23:57:01.170Z,97472.92
2018-06-05T23:59:29.910Z,97477.64
